This is the latest recevied weather packets stored in our database for station/object KF4KUL. If no packets are shown the sender has not sent any weather packets the latest 10 day(s).
| Time | Temp. | Humidity | Pressure | Rain* | Wind** | Luminosity | Snow |
|---|---|---|---|---|---|---|---|
| 1777679854 | 26.11° C | 75% | 1010.8 hPa | 0 mm | - | - | - |
| 1777678953 | 26.67° C | 74% | 1010.7 hPa | 0 mm | - | - | - |
| 1777678052 | 26.67° C | 73% | 1010.5 hPa | 0 mm | - | - | - |
| 1777677151 | 27.22° C | 71% | 1010.4 hPa | 0 mm | - | - | - |
| 1777676250 | 27.22° C | 71% | 1010.2 hPa | 0 mm | - | - | - |
| 1777675349 | 27.78° C | 69% | 1010.2 hPa | 0 mm | - | - | - |
| 1777674449 | 28.33° C | 66% | 1010.1 hPa | 0 mm | - | - | - |
| 1777672646 | 29.44° C | 62% | 1009.9 hPa | 0 mm | - | - | - |
| 1777671745 | 29.44° C | 58% | 1009.9 hPa | 0 mm | - | - | - |
| 1777670844 | 28.89° C | 57% | 1009.7 hPa | 0 mm | - | - | - |
| 1777669943 | 29.44° C | 56% | 1009.9 hPa | 0 mm | - | - | - |
| 1777669042 | 30° C | 55% | 1010 hPa | 0 mm | - | - | - |
| 1777668141 | 30° C | 58% | 1009.9 hPa | 0 mm | - | - | - |
| 1777667240 | 28.89° C | 60% | 1009.9 hPa | 0 mm | - | - | - |
| 1777666339 | 30.56° C | 58% | 1010.1 hPa | 0 mm | - | - | - |
| 1777665438 | 31.11° C | 54% | 1010.4 hPa | 0 mm | - | - | - |
| 1777664537 | 31.67° C | 55% | 1010.5 hPa | 0 mm | - | - | - |
| 1777663636 | 31.67° C | 54% | 1010.9 hPa | 0 mm | - | - | - |
| 1777662735 | 30.56° C | 55% | 1011.3 hPa | 0 mm | - | - | - |
| 1777661834 | 31.11° C | 54% | 1011.4 hPa | 0 mm | - | - | - |
| 1777660933 | 30.56° C | 56% | 1011.6 hPa | 0 mm | - | - | - |
| 1777660032 | 30° C | 59% | 1011.9 hPa | 0 mm | - | - | - |
| 1777659131 | 30° C | 59% | 1012.1 hPa | 0 mm | - | - | - |
| 1777658230 | 29.44° C | 60% | 1012.3 hPa | 0 mm | - | - | - |
| 1777657329 | 31.11° C | 58% | 1012.4 hPa | 0 mm | - | - | - |
* Rain latest hour (hover to see other rain measurements)
** Current wind speed in m/s (hover to see current wind gust speed)